North Cornwall, Pennsylvania
Current Conditions -  °F | °C
As of 5:58 AM on Wednesday 22 Oct 2014 (Local Time) from KMUI Reporting Station
Broken Clouds Broken Clouds  
Wind Chill: 55°   Ceiling: 11000
Heat Index: 55°   Visibility: 10mi
Dew Point: 54°   Wind: 7mph
Humidity: 96%   Direction: NA
Pressure: 29.92"   Gusts: NA
Location:  40.2957°N, 76.4189°W
Report Text: KMUI 220958Z AUTO VRB06KT 10SM FEW020 BKN110 13/12 A2992 RMK AO2 SLP135 T01260120 $
Loading
Personal Weather Stations






























Interactive Weather Map
Tropical Storm Tracking
New forecast layout! Learn more

10-Day Weather Forecast

Advertisements
Track Severe Weather on mobile